Aviation Digital Data Service (ADDS)

Output produced by TAFs form (0956 UTC 23 April 2017)
found at http://www.aviationweather.gov/adds/tafs/
 
METAR text: RJDC 230900Z 23004KT CAVOK 17/M01 Q1017
Conditions at: RJDC (YAMAGUCHI/UBE AR, JP) observed 0900 UTC 23 April 2017
Temperature: 17.0°C (63°F)
Dewpoint: -1.0°C (30°F) [RH = 29%]
Pressure (altimeter): 30.03 inches Hg (1017.0 mb)
Winds: from the SW (230 degrees) at 5 MPH (4 knots; 2.1 m/s)
Visibility: 6 or more miles (10+ km)
Ceiling: ceiling and visibility are OK
Clouds: unknown
Weather: no significant weather observed at this time